Time;durP1;ratioP1;P1;durP2;ratioP2;P2;SDS_P1;SDS_P2;PMS_P1;PMS_P2;Temp;Humidity;BMP_temperature;BMP_pressure;BME280_temperature;BME280_humidity;BME280_pressure;Samples;Min_cycle;Max_cycle;Signal;HPM_P1;HPM_P2
2021/01/18 00:00:55;;;;;;;27.35;12.73;;;;;;;;;;5025797;28;20193;-91
2021/01/18 00:03:21;;;;;;;26.48;12.68;;;;;;;;;;5023464;28;20233;-92
2021/01/18 00:05:47;;;;;;;22.02;11.70;;;;;;;;;;5030216;28;20201;-92
2021/01/18 00:08:13;;;;;;;21.23;11.43;;;;;;;;;;5036950;28;20229;-92
2021/01/18 00:10:39;;;;;;;31.15;12.05;;;;;;;;;;5036779;28;20189;-92
2021/01/18 00:13:06;;;;;;;24.13;13.18;;;;;;;;;;5031877;28;20202;-92
2021/01/18 00:15:32;;;;;;;25.63;12.60;;;;;;;;;;5025213;28;20212;-92
2021/01/18 00:17:58;;;;;;;22.23;11.63;;;;;;;;;;5022641;28;20205;-92
2021/01/18 00:20:24;;;;;;;26.48;12.18;;;;;;;;;;5017452;28;20210;-91
2021/01/18 00:22:50;;;;;;;25.48;12.80;;;;;;;;;;5022328;28;20768;-91
2021/01/18 00:25:17;;;;;;;30.35;15.00;;;;;;;;;;5020392;28;20212;-91
2021/01/18 00:27:44;;;;;;;25.75;13.65;;;;;;;;;;5023853;28;20213;-91
2021/01/18 00:30:14;;;;;;;23.88;12.45;;;;;;;;;;5020392;28;20225;-92
2021/01/18 00:32:40;;;;;;;27.40;13.93;;;;;;;;;;5021509;28;20510;-90
2021/01/18 00:35:07;;;;;;;30.58;14.35;;;;;;;;;;5020269;28;20208;-90
2021/01/18 00:37:39;;;;;;;29.90;13.43;;;;;;;;;;5023237;28;20203;-91
2021/01/18 00:40:06;;;;;;;27.17;13.15;;;;;;;;;;5022627;28;20197;-91
2021/01/18 00:42:32;;;;;;;25.35;14.15;;;;;;;;;;5019148;28;20233;-91
2021/01/18 00:44:58;;;;;;;31.27;15.98;;;;;;;;;;5023679;28;20213;-91
2021/01/18 00:47:25;;;;;;;36.10;18.90;;;;;;;;;;5019869;28;20205;-91
2021/01/18 00:49:51;;;;;;;40.75;19.23;;;;;;;;;;5021294;28;20197;-91
2021/01/18 00:52:17;;;;;;;35.17;17.73;;;;;;;;;;5018277;28;20218;-92
2021/01/18 00:54:43;;;;;;;38.38;17.50;;;;;;;;;;5023923;28;20211;-91
2021/01/18 00:57:09;;;;;;;33.10;16.85;;;;;;;;;;5022877;28;20217;-92
2021/01/18 00:59:35;;;;;;;39.47;18.02;;;;;;;;;;5021662;28;20216;-91
2021/01/18 01:02:01;;;;;;;35.38;17.58;;;;;;;;;;5023422;28;20202;-91
2021/01/18 01:04:28;;;;;;;34.00;15.45;;;;;;;;;;5021096;28;20221;-91
2021/01/18 01:06:54;;;;;;;34.72;17.73;;;;;;;;;;5023400;28;20233;-91
2021/01/18 01:09:20;;;;;;;30.42;17.10;;;;;;;;;;5020247;28;20223;-92
2021/01/18 01:11:46;;;;;;;32.05;15.88;;;;;;;;;;5023417;28;20213;-91
2021/01/18 01:14:12;;;;;;;31.73;17.05;;;;;;;;;;5020673;28;20247;-90
2021/01/18 01:16:38;;;;;;;34.30;18.55;;;;;;;;;;5023935;28;20795;-90
2021/01/18 01:19:04;;;;;;;31.63;17.10;;;;;;;;;;5021320;28;20212;-90
2021/01/18 01:21:31;;;;;;;28.40;16.67;;;;;;;;;;5018744;28;20213;-91
2021/01/18 01:23:57;;;;;;;32.75;17.35;;;;;;;;;;5021790;28;20260;-91
2021/01/18 01:26:23;;;;;;;33.95;17.30;;;;;;;;;;5018711;28;20200;-91
2021/01/18 01:28:49;;;;;;;29.05;15.55;;;;;;;;;;5023298;28;20207;-91
2021/01/18 01:31:15;;;;;;;29.85;16.75;;;;;;;;;;5018934;28;20213;-91
2021/01/18 01:33:41;;;;;;;27.17;15.32;;;;;;;;;;5022997;28;20208;-91
2021/01/18 01:36:07;;;;;;;31.73;16.45;;;;;;;;;;5022086;28;20612;-92
2021/01/18 01:38:34;;;;;;;35.33;16.70;;;;;;;;;;5018442;28;20212;-92
2021/01/18 01:41:00;;;;;;;28.17;16.45;;;;;;;;;;5023784;28;20630;-91
2021/01/18 01:43:26;;;;;;;29.42;16.17;;;;;;;;;;5020469;28;20232;-90
2021/01/18 01:45:52;;;;;;;30.27;16.17;;;;;;;;;;5025453;28;20572;-91
2021/01/18 01:48:19;;;;;;;28.08;15.25;;;;;;;;;;5020448;28;20264;-91
2021/01/18 01:50:46;;;;;;;31.85;17.27;;;;;;;;;;5022414;28;20197;-91
2021/01/18 01:53:15;;;;;;;28.92;14.60;;;;;;;;;;5021541;28;20202;-92
2021/01/18 01:55:42;;;;;;;28.23;14.95;;;;;;;;;;5022071;28;20205;-91
2021/01/18 01:58:08;;;;;;;25.55;14.32;;;;;;;;;;5022581;28;20204;-90
2021/01/18 02:00:37;;;;;;;25.27;12.90;;;;;;;;;;5020468;28;20217;-91
2021/01/18 02:03:08;;;;;;;29.73;14.02;;;;;;;;;;5023333;28;20224;-91
2021/01/18 02:05:34;;;;;;;28.45;14.45;;;;;;;;;;5019080;28;20202;-91
2021/01/18 02:08:00;;;;;;;34.47;14.55;;;;;;;;;;5021375;28;20229;-93
2021/01/18 02:10:27;;;;;;;30.42;15.90;;;;;;;;;;5019698;28;20209;-90
2021/01/18 02:12:54;;;;;;;28.73;15.00;;;;;;;;;;5022736;28;20212;-92
2021/01/18 02:15:26;;;;;;;26.08;13.10;;;;;;;;;;5019037;28;20212;-91
2021/01/18 02:17:57;;;;;;;20.05;10.90;;;;;;;;;;5020743;28;20204;-92
2021/01/18 02:20:38;;;;;;;28.45;11.90;;;;;;;;;;5022032;28;20202;-91
2021/01/18 02:23:27;;;;;;;24.10;12.85;;;;;;;;;;5020259;28;20224;-91
2021/01/18 02:25:55;;;;;;;26.83;11.88;;;;;;;;;;4965503;28;20210;-90
2021/01/18 02:28:26;;;;;;;25.13;12.43;;;;;;;;;;5019925;28;20216;-91
2021/01/18 02:31:11;;;;;;;23.13;13.35;;;;;;;;;;5022398;28;20672;-91
2021/01/18 02:33:52;;;;;;;26.95;12.38;;;;;;;;;;5019753;28;20205;-91
2021/01/18 02:36:26;;;;;;;22.77;12.07;;;;;;;;;;5020471;28;20206;-92
2021/01/18 02:38:55;;;;;;;21.90;11.20;;;;;;;;;;5018771;28;20239;-91
2021/01/18 02:41:30;;;;;;;20.40;10.40;;;;;;;;;;5020927;28;20209;-91
2021/01/18 02:44:00;;;;;;;21.48;11.63;;;;;;;;;;5018526;28;20815;-91
2021/01/18 02:46:27;;;;;;;23.85;13.55;;;;;;;;;;5020959;28;20201;-90
2021/01/18 02:48:55;;;;;;;23.42;12.48;;;;;;;;;;5018769;28;20200;-91
2021/01/18 02:51:23;;;;;;;27.23;12.65;;;;;;;;;;5022675;28;20223;-91
2021/01/18 02:53:58;;;;;;;19.45;10.82;;;;;;;;;;5020561;28;20241;-92
2021/01/18 02:56:25;;;;;;;22.60;12.15;;;;;;;;;;5020777;28;20211;-91
2021/01/18 02:58:52;;;;;;;26.35;12.75;;;;;;;;;;5027018;28;20205;-92
2021/01/18 03:01:24;;;;;;;23.70;12.20;;;;;;;;;;5033673;28;20182;-91
2021/01/18 03:03:57;;;;;;;22.55;12.27;;;;;;;;;;5034966;28;20241;-91
2021/01/18 03:06:27;;;;;;;19.58;11.23;;;;;;;;;;5030415;28;20275;-92
2021/01/18 03:08:56;;;;;;;21.30;11.57;;;;;;;;;;5027803;28;20208;-91
2021/01/18 03:11:23;;;;;;;26.73;13.48;;;;;;;;;;5024998;28;20231;-91
2021/01/18 03:13:55;;;;;;;29.95;15.15;;;;;;;;;;5027382;28;20232;-91
2021/01/18 03:16:22;;;;;;;29.05;14.65;;;;;;;;;;5023751;28;20208;-91
2021/01/18 03:18:49;;;;;;;29.73;16.85;;;;;;;;;;5028288;28;20239;-91
2021/01/18 03:21:16;;;;;;;34.20;15.48;;;;;;;;;;5024323;28;20223;-90
2021/01/18 03:23:44;;;;;;;28.10;13.73;;;;;;;;;;5024036;28;20259;-91
2021/01/18 03:26:10;;;;;;;30.52;14.88;;;;;;;;;;5027714;28;20204;-92
2021/01/18 03:28:37;;;;;;;24.02;12.90;;;;;;;;;;5025555;28;20208;-91
2021/01/18 03:31:03;;;;;;;26.83;13.60;;;;;;;;;;5019644;28;20196;-90
2021/01/18 03:33:30;;;;;;;24.38;12.32;;;;;;;;;;5024804;28;20204;-91
2021/01/18 03:35:56;;;;;;;25.20;12.82;;;;;;;;;;5026517;28;20208;-90
2021/01/18 03:38:22;;;;;;;21.23;12.02;;;;;;;;;;5025430;28;20244;-91
2021/01/18 03:40:50;;;;;;;20.00;12.02;;;;;;;;;;5028727;28;20217;-91
2021/01/18 03:43:18;;;;;;;28.33;13.55;;;;;;;;;;5026944;28;20240;-91
2021/01/18 03:45:44;;;;;;;20.80;11.57;;;;;;;;;;5027807;28;20676;-91
2021/01/18 03:48:11;;;;;;;21.83;12.30;;;;;;;;;;5028479;28;20227;-90
2021/01/18 03:50:38;;;;;;;23.63;12.00;;;;;;;;;;5024860;28;20209;-91
2021/01/18 03:53:04;;;;;;;21.88;11.02;;;;;;;;;;5026680;28;20677;-91
2021/01/18 03:55:31;;;;;;;22.63;12.40;;;;;;;;;;5022126;28;20228;-91
2021/01/18 03:57:57;;;;;;;21.27;11.52;;;;;;;;;;5027934;28;20206;-91
2021/01/18 04:00:24;;;;;;;18.60;10.48;;;;;;;;;;5022279;28;20236;-91
2021/01/18 04:02:51;;;;;;;22.80;11.35;;;;;;;;;;5026007;28;20235;-91
2021/01/18 04:05:17;;;;;;;25.23;12.90;;;;;;;;;;5024705;28;20217;-91
2021/01/18 04:07:43;;;;;;;28.92;12.85;;;;;;;;;;5027242;28;20224;-91
2021/01/18 04:10:10;;;;;;;22.65;12.52;;;;;;;;;;5028005;28;20208;-91
2021/01/18 04:12:38;;;;;;;18.40;10.23;;;;;;;;;;5024852;28;20205;-91
2021/01/18 04:15:06;;;;;;;24.45;13.95;;;;;;;;;;5028270;28;20205;-90
2021/01/18 04:17:32;;;;;;;22.60;12.52;;;;;;;;;;5016871;28;20213;-91
2021/01/18 04:19:58;;;;;;;25.17;12.70;;;;;;;;;;5023014;28;20207;-91
2021/01/18 04:22:24;;;;;;;31.25;16.08;;;;;;;;;;5019542;28;20210;-91
2021/01/18 04:24:50;;;;;;;25.15;12.52;;;;;;;;;;5023095;28;20216;-91
2021/01/18 04:27:16;;;;;;;26.40;14.20;;;;;;;;;;5020770;28;20209;-91
2021/01/18 04:29:43;;;;;;;28.27;14.40;;;;;;;;;;5023019;28;20201;-91
2021/01/18 04:32:11;;;;;;;27.25;13.90;;;;;;;;;;5022530;28;20680;-92
2021/01/18 04:34:37;;;;;;;26.52;12.40;;;;;;;;;;5022054;28;20208;-92
2021/01/18 04:37:03;;;;;;;32.83;14.88;;;;;;;;;;5025213;28;20205;-92
2021/01/18 04:39:29;;;;;;;27.95;14.70;;;;;;;;;;5021802;28;20204;-92
2021/01/18 04:41:58;;;;;;;32.55;14.48;;;;;;;;;;5024243;28;20208;-91
2021/01/18 04:44:25;;;;;;;26.10;14.70;;;;;;;;;;5020607;28;20229;-91
2021/01/18 04:46:53;;;;;;;30.70;14.68;;;;;;;;;;5022662;28;20209;-91
2021/01/18 04:49:20;;;;;;;26.98;14.32;;;;;;;;;;5020587;28;20208;-91
2021/01/18 04:51:48;;;;;;;26.83;14.90;;;;;;;;;;5021240;28;20201;-92
2021/01/18 04:54:15;;;;;;;27.20;13.80;;;;;;;;;;5023050;28;20195;-91
2021/01/18 04:56:59;;;;;;;27.00;14.13;;;;;;;;;;5020812;28;20201;-90
2021/01/18 04:59:27;;;;;;;32.63;16.05;;;;;;;;;;5022277;28;20584;-90
2021/01/18 05:02:05;;;;;;;31.95;16.25;;;;;;;;;;5020290;28;20216;-91
2021/01/18 05:04:36;;;;;;;35.10;16.55;;;;;;;;;;5022088;28;20233;-92
2021/01/18 05:07:12;;;;;;;32.58;16.55;;;;;;;;;;5012136;28;20228;-91
2021/01/18 05:09:42;;;;;;;44.63;21.75;;;;;;;;;;5024289;28;20203;-92
2021/01/18 05:12:10;;;;;;;52.63;25.02;;;;;;;;;;5019210;28;20945;-90
2021/01/18 05:14:37;;;;;;;48.80;20.75;;;;;;;;;;5021835;28;20216;-91
2021/01/18 05:17:07;;;;;;;43.95;20.52;;;;;;;;;;5018915;28;20220;-91
2021/01/18 05:19:34;;;;;;;37.17;19.17;;;;;;;;;;5021943;28;20210;-90
2021/01/18 05:22:00;;;;;;;37.95;19.55;;;;;;;;;;5019453;28;20196;-90
2021/01/18 05:24:26;;;;;;;40.90;19.35;;;;;;;;;;5020162;28;20251;-91
2021/01/18 05:27:02;;;;;;;35.67;17.80;;;;;;;;;;5022861;28;20211;-90
2021/01/18 05:29:29;;;;;;;40.42;20.67;;;;;;;;;;5018985;28;20205;-91
2021/01/18 05:31:55;;;;;;;39.38;18.02;;;;;;;;;;5021845;28;20198;-90
2021/01/18 05:34:25;;;;;;;36.47;17.08;;;;;;;;;;5018568;28;20216;-91
2021/01/18 05:36:53;;;;;;;37.78;17.10;;;;;;;;;;5020691;28;20197;-90
2021/01/18 05:39:20;;;;;;;30.55;14.30;;;;;;;;;;5020306;28;20208;-91
2021/01/18 05:41:46;;;;;;;26.27;13.73;;;;;;;;;;5021709;28;20224;-91
2021/01/18 05:44:13;;;;;;;28.55;14.55;;;;;;;;;;5023771;28;20225;-91
2021/01/18 05:46:41;;;;;;;36.17;16.58;;;;;;;;;;5021550;28;20279;-91
2021/01/18 05:49:13;;;;;;;43.58;19.25;;;;;;;;;;5023666;28;20209;-91
2021/01/18 05:51:40;;;;;;;37.35;19.05;;;;;;;;;;5014357;28;20220;-91
2021/01/18 05:54:10;;;;;;;33.13;17.30;;;;;;;;;;5025583;28;20213;-92
2021/01/18 05:56:43;;;;;;;25.80;14.43;;;;;;;;;;5027849;28;20201;-90
2021/01/18 05:59:17;;;;;;;30.88;14.35;;;;;;;;;;5032333;28;20255;-90
2021/01/18 06:01:43;;;;;;;33.95;15.43;;;;;;;;;;5032578;28;20279;-91
2021/01/18 06:04:09;;;;;;;29.83;14.90;;;;;;;;;;5029639;28;20255;-90
2021/01/18 06:06:36;;;;;;;23.65;13.27;;;;;;;;;;5022832;28;20245;-90
2021/01/18 06:09:02;;;;;;;27.73;14.00;;;;;;;;;;5024729;28;20284;-90
2021/01/18 06:11:29;;;;;;;21.85;12.35;;;;;;;;;;5024125;28;20215;-91
2021/01/18 06:14:01;;;;;;;21.15;12.13;;;;;;;;;;5023190;28;20205;-90
2021/01/18 06:16:28;;;;;;;25.55;13.00;;;;;;;;;;5026011;28;20193;-90
2021/01/18 06:19:02;;;;;;;23.65;11.75;;;;;;;;;;5021495;28;20213;-90
2021/01/18 06:21:39;;;;;;;24.67;13.40;;;;;;;;;;5024193;28;20210;-91
2021/01/18 06:24:17;;;;;;;20.00;12.82;;;;;;;;;;5024952;28;20229;-90
2021/01/18 06:26:45;;;;;;;27.85;13.60;;;;;;;;;;5026172;28;20201;-90
2021/01/18 06:29:11;;;;;;;25.83;12.98;;;;;;;;;;5021356;28;20215;-91
2021/01/18 06:31:46;;;;;;;31.10;13.32;;;;;;;;;;5024004;28;20213;-90
2021/01/18 06:34:26;;;;;;;25.15;13.30;;;;;;;;;;5023066;28;20723;-90
2021/01/18 06:36:54;;;;;;;26.75;13.20;;;;;;;;;;5021647;28;20223;-90
2021/01/18 06:39:24;;;;;;;29.00;14.73;;;;;;;;;;5021000;28;20217;-90
2021/01/18 06:41:54;;;;;;;30.10;14.40;;;;;;;;;;5017044;28;20208;-90
2021/01/18 06:44:32;;;;;;;25.63;13.50;;;;;;;;;;5024121;28;20259;-90
2021/01/18 06:46:58;;;;;;;31.02;15.30;;;;;;;;;;5021017;28;20208;-90
2021/01/18 06:49:25;;;;;;;30.05;16.38;;;;;;;;;;5021402;28;20231;-90
2021/01/18 06:51:57;;;;;;;43.17;21.52;;;;;;;;;;5020717;28;20217;-90
2021/01/18 06:54:25;;;;;;;53.70;27.90;;;;;;;;;;5024208;28;20219;-89
2021/01/18 06:57:00;;;;;;;74.20;34.08;;;;;;;;;;5022595;28;20259;-89
2021/01/18 06:59:33;;;;;;;75.30;35.65;;;;;;;;;;5021338;28;20258;-89
2021/01/18 07:02:05;;;;;;;100.25;48.05;;;;;;;;;;5015134;28;20224;-89
2021/01/18 07:04:36;;;;;;;85.72;43.42;;;;;;;;;;5021159;28;20253;-89
2021/01/18 07:07:04;;;;;;;76.88;38.33;;;;;;;;;;5022964;28;20229;-89
2021/01/18 07:09:30;;;;;;;79.18;37.22;;;;;;;;;;5020709;28;20202;-89
2021/01/18 07:12:04;;;;;;;70.57;35.42;;;;;;;;;;5022587;28;20200;-89
2021/01/18 07:14:30;;;;;;;73.75;35.67;;;;;;;;;;5015320;28;20723;-90
2021/01/18 07:17:01;;;;;;;69.50;33.25;;;;;;;;;;5023788;28;20219;-89
2021/01/18 07:19:29;;;;;;;65.30;32.78;;;;;;;;;;5020811;28;20943;-89
2021/01/18 07:21:59;;;;;;;64.50;32.80;;;;;;;;;;5023305;28;20203;-90
2021/01/18 07:24:29;;;;;;;62.67;32.55;;;;;;;;;;5021321;28;20291;-89
2021/01/18 07:27:01;;;;;;;66.57;33.90;;;;;;;;;;5021698;28;20214;-91
2021/01/18 07:29:28;;;;;;;63.97;31.92;;;;;;;;;;5022977;28;20220;-90
2021/01/18 07:31:55;;;;;;;59.78;29.98;;;;;;;;;;5020945;28;20207;-89
2021/01/18 07:34:22;;;;;;;61.67;32.72;;;;;;;;;;5022407;28;20199;-90
2021/01/18 07:36:48;;;;;;;52.85;29.00;;;;;;;;;;5020362;28;20562;-90
2021/01/18 07:39:28;;;;;;;60.55;28.88;;;;;;;;;;5022806;28;20220;-90
2021/01/18 07:41:54;;;;;;;44.60;25.23;;;;;;;;;;5020970;28;20202;-89
2021/01/18 07:44:31;;;;;;;51.35;27.52;;;;;;;;;;5018946;28;20226;-90
2021/01/18 07:47:01;;;;;;;45.50;24.02;;;;;;;;;;5014030;28;20207;-90
2021/01/18 07:49:37;;;;;;;48.67;25.80;;;;;;;;;;5021173;28;20232;-89
2021/01/18 07:52:16;;;;;;;44.92;22.77;;;;;;;;;;5020503;28;20213;-90
2021/01/18 07:54:42;;;;;;;42.60;23.75;;;;;;;;;;5027760;28;20229;-91
2021/01/18 07:57:24;;;;;;;43.35;23.50;;;;;;;;;;5025821;28;20223;-90
2021/01/18 08:00:11;;;;;;;41.28;21.55;;;;;;;;;;5027014;28;20204;-89
2021/01/18 08:02:37;;;;;;;40.13;21.70;;;;;;;;;;5025239;28;20731;-90
2021/01/18 08:05:18;;;;;;;34.55;20.17;;;;;;;;;;5023358;28;20201;-91
2021/01/18 08:08:00;;;;;;;53.15;20.33;;;;;;;;;;5021969;28;20258;-90
2021/01/18 08:10:46;;;;;;;33.70;19.50;;;;;;;;;;5023923;28;20290;-89
2021/01/18 08:13:29;;;;;;;28.73;15.93;;;;;;;;;;5028307;28;20227;-90
2021/01/18 08:15:56;;;;;;;25.45;15.32;;;;;;;;;;5024658;28;20264;-89
2021/01/18 08:18:25;;;;;;;26.13;15.02;;;;;;;;;;5026247;28;20244;-89
2021/01/18 08:20:51;;;;;;;27.65;14.30;;;;;;;;;;5020017;28;20239;-89
2021/01/18 08:23:32;;;;;;;25.27;15.10;;;;;;;;;;5025689;28;20604;-89
2021/01/18 08:25:58;;;;;;;22.25;13.27;;;;;;;;;;5001327;28;20216;-91
2021/01/18 08:28:27;;;;;;;30.05;13.57;;;;;;;;;;5025719;28;20215;-90
2021/01/18 08:30:56;;;;;;;25.70;15.15;;;;;;;;;;5024851;28;20210;-90
2021/01/18 08:33:25;;;;;;;25.73;15.63;;;;;;;;;;5026613;28;20207;-89
2021/01/18 08:35:51;;;;;;;23.80;14.05;;;;;;;;;;5024045;28;20204;-90
2021/01/18 08:38:22;;;;;;;24.80;13.20;;;;;;;;;;5018792;28;20211;-91
2021/01/18 08:40:50;;;;;;;24.27;12.93;;;;;;;;;;5028852;28;20208;-92
2021/01/18 08:43:17;;;;;;;25.08;14.10;;;;;;;;;;5027023;28;20264;-91
2021/01/18 08:45:44;;;;;;;27.08;12.60;;;;;;;;;;5028944;28;20204;-93
2021/01/18 08:48:12;;;;;;;24.33;13.38;;;;;;;;;;5035120;28;20215;-93
2021/01/18 08:50:41;;;;;;;19.95;12.57;;;;;;;;;;5027998;28;20216;-93
2021/01/18 08:53:29;;;;;;;25.17;13.10;;;;;;;;;;5024299;28;20204;-93
2021/01/18 08:55:56;;;;;;;24.73;14.73;;;;;;;;;;5016493;28;20197;-93
2021/01/18 08:58:32;;;;;;;30.27;13.98;;;;;;;;;;5027013;28;20217;-94
2021/01/18 09:00:59;;;;;;;26.65;13.90;;;;;;;;;;5028342;28;20207;-95
2021/01/18 09:03:26;;;;;;;19.65;11.95;;;;;;;;;;5023831;28;20236;-93
2021/01/18 09:05:54;;;;;;;20.58;11.85;;;;;;;;;;5023961;28;20209;-96
2021/01/18 09:08:22;;;;;;;22.23;14.00;;;;;;;;;;5027699;28;20235;-95
2021/01/18 09:10:53;;;;;;;21.00;11.80;;;;;;;;;;5024620;28;20268;-94
2021/01/18 09:13:20;;;;;;;18.45;11.32;;;;;;;;;;5025633;28;20236;-94
2021/01/18 09:15:47;;;;;;;22.48;11.60;;;;;;;;;;5023171;28;20223;-95
2021/01/18 09:18:15;;;;;;;20.75;12.05;;;;;;;;;;5020898;28;20207;-95
2021/01/18 09:20:45;;;;;;;22.17;12.57;;;;;;;;;;5024728;28;20201;-95
2021/01/18 09:23:12;;;;;;;21.85;13.63;;;;;;;;;;5026774;28;20259;-95
2021/01/18 09:25:38;;;;;;;22.02;13.02;;;;;;;;;;5024444;28;20197;-96
2021/01/18 09:28:05;;;;;;;29.33;14.77;;;;;;;;;;5026598;28;20296;-95
2021/01/18 09:30:32;;;;;;;22.52;13.38;;;;;;;;;;5032802;28;20205;-94
2021/01/18 09:32:58;;;;;;;23.73;14.25;;;;;;;;;;5025957;28;20201;-95
2021/01/18 09:35:25;;;;;;;28.92;13.77;;;;;;;;;;5023718;28;20219;-95
2021/01/18 09:37:53;;;;;;;21.55;13.55;;;;;;;;;;5022313;28;20272;-93
2021/01/18 09:40:29;;;;;;;21.27;12.82;;;;;;;;;;5025039;28;20226;-94
2021/01/18 09:42:58;;;;;;;24.48;14.35;;;;;;;;;;5015001;28;20204;-95
2021/01/18 09:45:26;;;;;;;24.00;15.50;;;;;;;;;;5024543;28;20215;-94
2021/01/18 09:47:52;;;;;;;24.30;16.38;;;;;;;;;;5022877;28;20223;-95
2021/01/18 09:50:20;;;;;;;26.42;13.65;;;;;;;;;;5025630;28;20205;-93
2021/01/18 09:52:47;;;;;;;20.73;12.00;;;;;;;;;;5026051;28;20208;-96
2021/01/18 09:55:16;;;;;;;22.08;12.65;;;;;;;;;;5027191;28;20350;-95
2021/01/18 09:57:50;;;;;;;22.02;12.63;;;;;;;;;;5026623;28;20213;-94
2021/01/18 10:00:20;;;;;;;19.45;12.70;;;;;;;;;;5026538;28;20193;-94
2021/01/18 10:02:47;;;;;;;20.85;13.75;;;;;;;;;;5029061;28;20224;-93
2021/01/18 10:05:20;;;;;;;29.75;15.55;;;;;;;;;;5023125;28;20216;-93
2021/01/18 10:07:49;;;;;;;23.58;14.85;;;;;;;;;;5013486;28;20291;-93
2021/01/18 10:10:16;;;;;;;25.10;14.50;;;;;;;;;;5024754;28;20203;-95
2021/01/18 10:12:44;;;;;;;19.85;12.50;;;;;;;;;;5025995;28;20208;-96
2021/01/18 10:15:10;;;;;;;22.98;15.75;;;;;;;;;;5019153;28;21350;-93
2021/01/18 10:17:36;;;;;;;19.52;12.13;;;;;;;;;;5020671;28;20207;-96
2021/01/18 10:20:04;;;;;;;19.75;12.55;;;;;;;;;;5020433;28;20216;-95
2021/01/18 10:22:35;;;;;;;18.08;11.68;;;;;;;;;;5018828;28;20226;-93
2021/01/18 10:25:01;;;;;;;17.33;10.90;;;;;;;;;;5007345;28;20292;-92
2021/01/18 10:27:29;;;;;;;21.70;13.38;;;;;;;;;;5021342;28;20203;-94
2021/01/18 10:30:07;;;;;;;19.40;12.85;;;;;;;;;;5024123;28;20212;-93
2021/01/18 10:32:37;;;;;;;17.10;11.52;;;;;;;;;;5022643;28;20213;-92
2021/01/18 10:35:16;;;;;;;18.83;12.15;;;;;;;;;;5016689;28;20204;-94
2021/01/18 10:37:42;;;;;;;21.77;11.70;;;;;;;;;;5021353;28;20208;-94
2021/01/18 10:40:11;;;;;;;18.50;12.23;;;;;;;;;;5023189;28;20205;-93
2021/01/18 10:42:53;;;;;;;19.13;11.88;;;;;;;;;;5020443;28;20210;-93
2021/01/18 10:45:19;;;;;;;21.88;12.70;;;;;;;;;;5017480;28;20222;-93
2021/01/18 10:47:56;;;;;;;18.55;11.15;;;;;;;;;;5009761;28;20212;-94
2021/01/18 10:50:23;;;;;;;15.85;10.77;;;;;;;;;;5023418;28;20208;-94
2021/01/18 10:52:49;;;;;;;18.88;11.25;;;;;;;;;;5022582;28;20209;-94
2021/01/18 10:55:17;;;;;;;12.60;9.23;;;;;;;;;;5021111;28;20213;-93
2021/01/18 10:57:45;;;;;;;13.55;9.15;;;;;;;;;;5016079;28;20284;-94
2021/01/18 11:00:12;;;;;;;14.15;9.68;;;;;;;;;;5021030;28;20212;-94
2021/01/18 11:02:39;;;;;;;15.35;9.18;;;;;;;;;;5026501;28;20208;-93
2021/01/18 11:05:06;;;;;;;14.30;9.80;;;;;;;;;;5019782;28;20710;-94
2021/01/18 11:07:33;;;;;;;14.63;9.88;;;;;;;;;;5021977;28;20255;-93
2021/01/18 11:09:59;;;;;;;16.80;10.68;;;;;;;;;;5019053;28;20204;-94
2021/01/18 11:12:29;;;;;;;15.73;10.50;;;;;;;;;;5017870;28;20201;-93
2021/01/18 11:14:58;;;;;;;19.65;11.43;;;;;;;;;;5021259;28;20192;-94
2021/01/18 11:17:27;;;;;;;16.48;10.82;;;;;;;;;;5018864;28;20266;-94
2021/01/18 11:19:53;;;;;;;16.15;10.38;;;;;;;;;;5020893;28;20288;-93
2021/01/18 11:22:19;;;;;;;17.52;10.30;;;;;;;;;;5019338;28;20297;-95
2021/01/18 11:24:45;;;;;;;19.35;11.80;;;;;;;;;;5019683;28;20233;-93
2021/01/18 11:27:11;;;;;;;18.05;11.00;;;;;;;;;;5011474;28;20222;-93
2021/01/18 11:29:37;;;;;;;19.90;11.45;;;;;;;;;;5026143;28;20219;-93
2021/01/18 11:32:04;;;;;;;15.73;9.93;;;;;;;;;;5029026;28;20203;-94
2021/01/18 11:34:31;;;;;;;16.00;9.07;;;;;;;;;;5031156;28;20205;-93
2021/01/18 11:37:02;;;;;;;13.57;9.45;;;;;;;;;;5027182;28;20204;-92
2021/01/18 11:39:28;;;;;;;13.55;8.73;;;;;;;;;;5024526;28;20204;-93
2021/01/18 11:41:54;;;;;;;14.85;8.73;;;;;;;;;;5020169;28;20241;-93
2021/01/18 11:44:20;;;;;;;13.50;9.13;;;;;;;;;;5025870;28;20225;-92
2021/01/18 11:46:46;;;;;;;13.20;9.73;;;;;;;;;;5027229;28;20205;-93
2021/01/18 11:49:14;;;;;;;14.57;9.45;;;;;;;;;;5026688;28;20224;-96
2021/01/18 11:51:40;;;;;;;18.77;10.40;;;;;;;;;;5028916;28;20208;-94
2021/01/18 11:54:06;;;;;;;13.90;9.23;;;;;;;;;;5027377;28;20263;-94
2021/01/18 11:56:32;;;;;;;14.75;9.18;;;;;;;;;;5024498;28;20206;-93
2021/01/18 11:58:58;;;;;;;14.95;9.02;;;;;;;;;;5026384;28;20220;-96
2021/01/18 12:01:25;;;;;;;13.25;9.93;;;;;;;;;;5026783;28;20211;-96
2021/01/18 12:03:52;;;;;;;16.63;9.15;;;;;;;;;;5031403;28;20232;-94
2021/01/18 12:06:19;;;;;;;13.88;10.20;;;;;;;;;;5029707;28;20241;-96
2021/01/18 12:08:49;;;;;;;16.98;10.15;;;;;;;;;;5028350;28;20213;-96
2021/01/18 12:11:20;;;;;;;16.42;10.45;;;;;;;;;;5035181;23;20236;-96
2021/01/18 12:13:46;;;;;;;15.80;10.00;;;;;;;;;;5046149;28;20188;-96
2021/01/18 12:16:25;;;;;;;15.73;9.80;;;;;;;;;;5038406;28;20204;-96
2021/01/18 12:18:52;;;;;;;13.85;10.25;;;;;;;;;;5023706;28;20207;-96
2021/01/18 12:21:19;;;;;;;17.67;10.23;;;;;;;;;;5037067;28;20205;-94
2021/01/18 12:23:50;;;;;;;17.00;11.07;;;;;;;;;;5045344;28;20248;-96
2021/01/18 12:26:16;;;;;;;16.25;11.20;;;;;;;;;;5036646;28;20238;-96
2021/01/18 12:28:43;;;;;;;18.48;11.00;;;;;;;;;;5036475;28;20263;-96
2021/01/18 12:31:23;;;;;;;15.68;10.68;;;;;;;;;;5041485;28;20256;-96
2021/01/18 12:33:49;;;;;;;22.83;11.20;;;;;;;;;;5034439;28;20747;-94
2021/01/18 12:36:15;;;;;;;11.80;8.45;;;;;;;;;;5044793;28;20204;-94
2021/01/18 12:38:45;;;;;;;11.80;7.68;;;;;;;;;;5052648;28;20205;-95
2021/01/18 12:41:12;;;;;;;11.05;7.82;;;;;;;;;;5048543;23;20242;-91
2021/01/18 12:43:38;;;;;;;9.65;7.25;;;;;;;;;;5000727;28;20278;-95
2021/01/18 12:46:04;;;;;;;10.73;6.70;;;;;;;;;;4993371;28;20215;-96
2021/01/18 12:48:31;;;;;;;10.30;7.45;;;;;;;;;;5000119;28;20733;-94
2021/01/18 12:50:59;;;;;;;10.50;6.65;;;;;;;;;;4999035;28;20206;-96
2021/01/18 12:53:43;;;;;;;10.70;7.25;;;;;;;;;;4986525;28;20687;-95
2021/01/18 12:56:25;;;;;;;10.30;7.72;;;;;;;;;;4994143;28;20710;-96
2021/01/18 12:58:52;;;;;;;12.30;8.95;;;;;;;;;;5007131;28;20206;-96
2021/01/18 13:01:19;;;;;;;11.35;8.00;;;;;;;;;;4992767;28;20210;-96
2021/01/18 13:03:46;;;;;;;11.85;8.15;;;;;;;;;;5005902;23;20251;-96
2021/01/18 13:08:48;;;;;;;9.18;6.00;;;;;;;;;;5037841;23;20237;-96
2021/01/18 13:11:14;;;;;;;7.72;5.38;;;;;;;;;;5035368;28;20202;-96
2021/01/18 13:13:42;;;;;;;10.35;6.32;;;;;;;;;;5010862;28;20945;-96
2021/01/18 13:16:09;;;;;;;10.68;6.25;;;;;;;;;;5016011;28;21194;-96
2021/01/18 13:18:35;;;;;;;9.70;6.85;;;;;;;;;;5009619;28;20232;-95
2021/01/18 13:21:01;;;;;;;8.05;6.60;;;;;;;;;;5010962;28;20304;-96
2021/01/18 13:23:27;;;;;;;11.20;7.07;;;;;;;;;;5021116;28;20244;-96
2021/01/18 13:26:07;;;;;;;10.05;7.13;;;;;;;;;;5014500;28;20297;-96
2021/01/18 13:28:34;;;;;;;8.90;6.18;;;;;;;;;;5011236;28;20262;-96
2021/01/18 13:34:00;;;;;;;10.43;7.10;;;;;;;;;;5026063;28;20209;-96
2021/01/18 13:36:28;;;;;;;9.07;6.90;;;;;;;;;;5013483;28;20222;-96
2021/01/18 13:39:06;;;;;;;11.20;6.15;;;;;;;;;;5023508;28;20622;-96
2021/01/18 13:41:37;;;;;;;11.70;6.75;;;;;;;;;;5017944;28;20206;-96
2021/01/18 13:44:04;;;;;;;13.73;8.82;;;;;;;;;;5008724;28;20356;-96
2021/01/18 13:46:31;;;;;;;14.90;10.65;;;;;;;;;;5017331;28;20267;-96
2021/01/18 13:48:59;;;;;;;13.23;10.23;;;;;;;;;;5020777;28;20218;-96
2021/01/18 13:51:26;;;;;;;16.23;9.80;;;;;;;;;;5013729;28;20626;-96
2021/01/18 13:53:53;;;;;;;11.20;8.30;;;;;;;;;;5021875;28;20207;-96
2021/01/18 13:56:21;;;;;;;12.30;8.52;;;;;;;;;;5027480;28;20202;-96
2021/01/18 13:58:47;;;;;;;10.68;6.85;;;;;;;;;;5032309;28;20209;-96
2021/01/18 14:01:23;;;;;;;11.95;6.80;;;;;;;;;;5017899;28;20295;-95
2021/01/18 14:03:49;;;;;;;10.57;6.43;;;;;;;;;;5015293;28;20244;-96
2021/01/18 14:06:27;;;;;;;11.10;6.47;;;;;;;;;;5005351;28;20202;-95
2021/01/18 14:08:55;;;;;;;11.38;6.53;;;;;;;;;;5011650;28;20259;-96
2021/01/18 14:11:29;;;;;;;11.48;7.20;;;;;;;;;;5022449;28;20197;-96
2021/01/18 14:13:55;;;;;;;13.05;7.55;;;;;;;;;;5010511;28;20202;-93
2021/01/18 14:16:22;;;;;;;17.13;7.90;;;;;;;;;;5014590;28;20263;-96
2021/01/18 14:18:48;;;;;;;17.73;8.55;;;;;;;;;;5012764;28;20225;-96
2021/01/18 14:21:15;;;;;;;10.15;7.72;;;;;;;;;;5011423;28;20284;-96
2021/01/18 14:29:45;;;;;;;17.17;9.60;;;;;;;;;;5023379;23;20275;-94
2021/01/18 14:32:11;;;;;;;16.45;8.77;;;;;;;;;;5030474;28;20223;-96
2021/01/18 14:34:37;;;;;;;14.45;8.25;;;;;;;;;;5029403;28;20217;-96
2021/01/18 14:37:03;;;;;;;15.25;9.63;;;;;;;;;;5028284;28;20223;-96
2021/01/18 14:39:30;;;;;;;20.77;11.35;;;;;;;;;;5025433;28;20209;-96